ADDS METAR Data INFO
IDs: Format: Raw Decoded Include TAF

Data at: 1701 UTC 26 Apr 2018

METAR for:K4I3 (Mount Vernon/Knox Cn, OH, US)
Text:K4I3 261656Z AUTO 11003KT 10SM SCT027 13/08 A2996 RMK AO2
Temperature: 13.0°C ( 55°F)
Dewpoint: 8.0°C ( 46°F) [RH = 72%]
Pressure (altimeter):29.96 inches Hg (1014.6 mb)
Winds:from the ESE (110 degrees) at 3 MPH (3 knots; 1.5 m/s)
Visibility:10 or more sm (16+ km)
Ceiling:at least 12,000 feet AGL
Clouds: scattered clouds at 2700 feet AGL
QC Flag:automated observation with no human augmentation